Time;durP1;ratioP1;P1;durP2;ratioP2;P2;SDS_P1;SDS_P2;PMS_P1;PMS_P2;Temp;Humidity;BMP_temperature;BMP_pressure;BME280_temperature;BME280_humidity;BME280_pressure;Samples;Min_cycle;Max_cycle;Signal;HPM_P1;HPM_P2
2022/06/06 00:01:48;;;;;;;;;6.33;6.33;;;;;19.77;57.22;101277.69;5036686;28;46155;-71
2022/06/06 00:04:15;;;;;;;;;10.33;10.00;;;;;19.85;56.83;101304.56;5030467;28;45620;-71
2022/06/06 00:06:41;;;;;;;;;16.33;15.00;;;;;19.61;56.65;101274.19;5026540;28;45629;-73
2022/06/06 00:09:09;;;;;;;;;8.00;8.00;;;;;19.85;57.08;101309.97;5032097;28;45249;-73
2022/06/06 00:11:35;;;;;;;;;5.67;5.67;;;;;19.74;56.91;101303.19;5019482;28;45515;-72
2022/06/06 00:14:02;;;;;;;;;8.67;7.33;;;;;19.64;57.02;101295.41;5021728;28;45471;-71
2022/06/06 00:16:27;;;;;;;;;6.00;5.00;;;;;19.75;56.89;101308.38;5035682;28;45500;-71
2022/06/06 00:18:53;;;;;;;;;7.33;6.00;;;;;19.59;57.10;101283.50;5022164;28;45508;-71
2022/06/06 00:21:18;;;;;;;;;7.00;5.33;;;;;19.63;56.84;101293.75;5020415;28;46417;-71
2022/06/06 00:23:43;;;;;;;;;10.33;8.67;;;;;19.36;57.47;101253.94;5024025;28;45500;-73
2022/06/06 00:26:12;;;;;;;;;7.67;6.00;;;;;19.46;57.75;101273.38;5022657;28;45519;-72
2022/06/06 00:28:39;;;;;;;;;6.00;6.00;;;;;19.44;57.70;101272.72;5042740;28;45564;-71
2022/06/06 00:36:35;;;;;;;;;8.33;5.67;;;;;19.63;58.42;101309.94;5020897;28;45237;-74
2022/06/06 00:39:02;;;;;;;;;5.00;4.33;;;;;19.61;58.37;101306.56;5028936;28;45531;-71
2022/06/06 00:41:28;;;;;;;;;5.67;4.67;;;;;18.69;58.58;101154.44;5033605;28;48634;-71
2022/06/06 00:44:06;;;;;;;;;5.33;4.00;;;;;19.45;58.28;101274.41;5017688;28;45456;-73
2022/06/06 00:46:36;;;;;;;;;4.67;4.00;;;;;19.38;58.31;101251.88;5006885;28;45384;-70
2022/06/06 00:49:03;;;;;;;;;5.00;5.00;;;;;19.52;58.43;101280.69;5005345;28;45510;-71
2022/06/06 00:51:30;;;;;;;;;5.33;4.33;;;;;19.37;58.29;101252.91;4979373;28;46151;-71
2022/06/06 00:53:57;;;;;;;;;5.67;5.67;;;;;19.13;58.62;101222.56;5007783;28;45521;-71
2022/06/06 00:56:37;;;;;;;;;5.00;5.00;;;;;19.54;58.41;101284.06;5002502;28;45156;-72
2022/06/06 00:59:06;;;;;;;;;4.67;4.67;;;;;19.29;58.57;101253.88;4988062;28;45495;-70
2022/06/06 01:01:35;;;;;;;;;9.67;8.33;;;;;18.97;58.68;101201.22;4991076;28;47211;-74
2022/06/06 01:04:03;;;;;;;;;4.33;4.33;;;;;19.46;58.68;101292.25;4994797;28;45424;-71
2022/06/06 01:06:33;;;;;;;;;4.00;3.00;;;;;18.54;58.39;101131.00;5006445;28;45342;-73
2022/06/06 01:08:59;;;;;;;;;4.00;3.67;;;;;19.35;58.59;101268.44;5006395;28;45500;-72
2022/06/06 01:11:39;;;;;;;;;6.00;6.00;;;;;19.47;59.07;101282.31;4998278;28;46412;-73
2022/06/06 01:14:08;;;;;;;;;5.00;5.00;;;;;19.43;59.13;101276.44;4997687;28;45279;-73
2022/06/06 01:16:46;;;;;;;;;4.33;4.33;;;;;19.44;59.17;101272.72;4979366;28;45354;-72
2022/06/06 01:19:20;;;;;;;;;5.33;5.33;;;;;19.40;59.67;101268.72;5012534;28;45398;-72
2022/06/06 01:22:12;;;;;;;;;7.00;7.00;;;;;19.37;59.94;101277.19;4996790;28;45460;-72
2022/06/06 01:24:58;;;;;;;;;5.33;5.33;;;;;19.36;60.07;101280.91;5000060;28;45322;-70
2022/06/06 01:27:56;;;;;;;;;6.00;6.00;;;;;19.36;60.15;101270.13;5007998;28;45586;-72
2022/06/06 01:30:27;;;;;;;;;8.33;7.00;;;;;19.27;60.42;101260.47;4997813;28;45256;-71
2022/06/06 01:32:57;;;;;;;;;7.33;6.00;;;;;18.36;60.41;101106.31;4988346;28;47400;-73
2022/06/06 01:35:25;;;;;;;;;6.67;6.67;;;;;19.32;60.91;101268.84;5004128;28;45444;-74
2022/06/06 01:37:51;;;;;;;;;7.00;7.00;;;;;19.32;60.70;101268.84;4987981;28;45418;-71
2022/06/06 01:40:18;;;;;;;;;8.67;7.67;;;;;19.08;61.09;101235.78;4998307;28;45356;-72
2022/06/06 01:43:00;;;;;;;;;9.33;9.33;;;;;19.29;61.04;101269.22;4997572;28;45772;-71
2022/06/06 01:45:50;;;;;;;;;8.67;8.67;;;;;19.28;60.67;101275.63;4999955;28;45539;-71
2022/06/06 01:48:20;;;;;;;;;9.33;9.00;;;;;19.18;61.08;101258.91;5027929;28;45210;-70
2022/06/06 01:50:46;;;;;;;;;6.67;5.67;;;;;19.23;61.19;101281.59;5030547;28;45519;-72
2022/06/06 01:53:23;;;;;;;;;9.33;8.33;;;;;18.97;60.75;101241.63;5020406;28;46515;-71
2022/06/06 01:55:51;;;;;;;;;8.33;7.00;;;;;19.20;60.83;101287.34;5043268;28;45258;-71
2022/06/06 01:58:22;;;;;;;;;6.67;6.67;;;;;18.22;60.18;101097.22;5026874;28;45436;-72
2022/06/06 02:00:48;;;;;;;;;9.67;7.33;;;;;18.99;60.01;101220.72;5038325;28;45394;-72
2022/06/06 02:03:13;;;;;;;;;7.33;7.33;;;;;18.95;59.82;101208.66;5028241;28;45651;-72
2022/06/06 02:05:39;;;;;;;;;8.33;7.33;;;;;19.28;59.33;101263.00;5026903;28;46153;-72
2022/06/06 02:08:05;;;;;;;;;5.33;5.33;;;;;19.27;59.21;101263.19;5032665;28;45430;-71
2022/06/06 02:10:31;;;;;;;;;4.67;4.67;;;;;19.12;58.81;101238.94;5019937;28;45332;-72
2022/06/06 02:12:56;;;;;;;;;5.00;3.33;;;;;19.23;59.06;101249.25;5026091;28;46943;-71
2022/06/06 02:15:23;;;;;;;;;4.33;4.00;;;;;19.20;58.56;101252.28;5022967;28;45650;-71
2022/06/06 02:17:49;;;;;;;;;5.67;5.67;;;;;19.24;58.52;101266.25;5039234;28;45430;-70
2022/06/06 02:20:17;;;;;;;;;6.00;5.00;;;;;19.25;58.63;101265.22;5020655;28;45392;-71
2022/06/06 02:22:43;;;;;;;;;5.67;5.67;;;;;19.20;58.67;101256.84;5019442;28;46688;-72
2022/06/06 02:25:09;;;;;;;;;4.00;4.00;;;;;19.07;58.28;101244.88;5027373;28;45159;-72
2022/06/06 02:27:35;;;;;;;;;3.00;3.00;;;;;18.76;58.35;101203.84;5035442;28;45527;-71
2022/06/06 02:30:05;;;;;;;;;4.00;4.00;;;;;16.73;57.88;100865.13;5028620;28;45342;-73
2022/06/06 02:32:31;;;;;;;;;4.67;4.67;;;;;18.85;57.74;101224.28;5034387;28;48376;-72
2022/06/06 02:34:57;;;;;;;;;4.00;4.00;;;;;18.99;57.75;101241.44;5034378;28;45712;-72
2022/06/06 02:37:23;;;;;;;;;4.00;4.00;;;;;19.04;57.63;101249.81;5050834;28;45537;-71
2022/06/06 02:39:49;;;;;;;;;4.00;4.00;;;;;19.08;57.70;101260.03;5024497;28;45609;-72
2022/06/06 02:42:14;;;;;;;;;5.67;5.67;;;;;19.07;57.71;101258.38;5021688;28;45563;-72
2022/06/06 02:44:40;;;;;;;;;7.00;7.00;;;;;18.77;57.54;101211.72;5019040;28;45542;-72
2022/06/06 02:47:05;;;;;;;;;4.67;4.67;;;;;19.03;57.25;101259.78;5018652;28;45412;-72
2022/06/06 02:49:33;;;;;;;;;3.00;3.00;;;;;18.74;57.28;101211.25;5019435;28;45230;-70
2022/06/06 02:52:03;;;;;;;;;3.00;3.00;;;;;19.04;56.96;101266.00;5019227;28;46461;-72
2022/06/06 02:54:29;;;;;;;;;2.67;2.33;;;;;18.46;56.48;101166.09;5051176;28;45634;-72
2022/06/06 02:56:55;;;;;;;;;3.33;3.33;;;;;18.98;56.38;101255.94;5025730;28;45295;-72
2022/06/06 02:59:22;;;;;;;;;3.67;3.67;;;;;18.97;56.78;101265.88;5027045;28;45459;-72
2022/06/06 03:01:48;;;;;;;;;4.33;3.33;;;;;18.74;56.62;101217.50;5027268;28;46529;-71
2022/06/06 03:04:13;;;;;;;;;4.00;4.00;;;;;18.93;55.80;101259.19;5018387;28;45396;-71
2022/06/06 03:07:09;;;;;;;;;3.67;3.67;;;;;18.82;56.18;101235.41;5018714;28;45375;-72
2022/06/06 03:09:49;;;;;;;;;3.33;3.33;;;;;18.89;56.42;101260.59;5026923;28;45478;-72
2022/06/06 03:12:43;;;;;;;;;3.00;3.00;;;;;18.76;55.63;101239.69;5029770;28;46832;-72
2022/06/06 03:15:14;;;;;;;;;2.00;2.00;;;;;18.82;55.57;101256.94;5025155;28;45324;-71
2022/06/06 03:21:20;;;;;;;;;5.00;5.00;;;;;18.23;55.20;101181.50;5019286;28;46412;-73
2022/06/06 03:24:03;;;;;;;;;2.00;2.00;;;;;18.67;55.33;101258.81;5029793;28;46268;-72
2022/06/06 03:27:06;;;;;;;;;2.00;2.00;;;;;18.65;55.72;101260.88;5028449;28;45317;-71
2022/06/06 03:29:54;;;;;;;;;4.00;3.00;;;;;18.66;55.55;101262.53;5037540;28;45423;-72
2022/06/06 03:32:41;;;;;;;;;3.00;3.00;;;;;18.61;55.98;101267.59;5029747;28;45495;-72
2022/06/06 03:35:27;;;;;;;;;3.00;3.00;;;;;18.52;55.95;101278.44;5035256;28;47798;-72
2022/06/06 03:38:33;;;;;;;;;3.00;3.00;;;;;18.55;56.30;101261.09;5029324;28;46370;-70
2022/06/06 03:41:18;;;;;;;;;2.00;2.00;;;;;18.54;56.47;101265.63;4994942;28;45749;-72
2022/06/06 03:44:11;;;;;;;;;4.00;4.00;;;;;17.50;56.57;101104.94;5018144;28;45491;-71
2022/06/06 03:46:59;;;;;;;;;2.33;2.33;;;;;17.74;56.50;101144.25;5017368;28;45852;-71
2022/06/06 03:49:31;;;;;;;;;3.00;3.00;;;;;18.51;56.50;101274.09;5017628;28;45720;-71
2022/06/06 03:52:15;;;;;;;;;3.00;3.00;;;;;18.49;56.82;101267.22;5016604;28;45255;-71
2022/06/06 03:55:06;;;;;;;;;5.67;4.67;;;;;18.49;57.16;101261.81;5018076;28;45530;-70
2022/06/06 03:57:35;;;;;;;;;5.00;3.67;;;;;18.12;56.86;101216.91;5006173;28;46501;-72
2022/06/06 04:00:06;;;;;;;;;3.00;3.00;;;;;16.80;56.63;101004.88;5031976;28;45478;-72
2022/06/06 04:02:34;;;;;;;;;3.00;3.00;;;;;17.61;57.22;101149.38;5017977;28;45326;-71
2022/06/06 04:05:03;;;;;;;;;4.00;4.00;;;;;18.34;57.37;101269.88;5032943;28;45459;-71
2022/06/06 04:07:28;;;;;;;;;4.00;4.00;;;;;18.29;57.35;101269.59;5016593;28;47112;-72
2022/06/06 04:09:53;;;;;;;;;5.00;4.00;;;;;17.44;56.99;101120.97;5017394;28;45419;-73
2022/06/06 04:12:30;;;;;;;;;5.67;5.33;;;;;18.17;57.70;101252.19;5017727;28;45432;-73
2022/06/06 04:14:55;;;;;;;;;4.33;4.33;;;;;18.38;57.85;101281.94;5036610;28;45489;-70
2022/06/06 04:17:49;;;;;;;;;4.00;4.00;;;;;18.37;57.86;101284.81;5023787;28;46263;-73
2022/06/06 04:20:22;;;;;;;;;4.00;4.00;;;;;18.39;57.62;101282.78;5016479;28;45635;-71
2022/06/06 04:23:16;;;;;;;;;5.00;4.00;;;;;18.38;57.88;101295.41;5017485;28;45451;-72
2022/06/06 04:25:44;;;;;;;;;3.33;3.33;;;;;18.33;57.46;101289.72;5021517;28;45602;-72
2022/06/06 04:28:31;;;;;;;;;6.00;6.00;;;;;18.10;57.35;101264.69;5016858;28;45708;-72
2022/06/06 04:31:12;;;;;;;;;2.00;2.00;;;;;18.42;57.63;101288.66;5017364;28;45356;-70
2022/06/06 04:33:44;;;;;;;;;17.67;15.33;;;;;18.33;57.69;101270.06;5028765;28;45392;-71
2022/06/06 04:36:09;;;;;;;;;3.67;3.67;;;;;18.45;57.76;101288.28;5035554;28;45337;-70
2022/06/06 04:38:48;;;;;;;;;2.00;2.00;;;;;18.47;57.38;101286.25;5035517;28;47916;-72
2022/06/06 04:41:48;;;;;;;;;4.67;2.00;;;;;18.42;56.70;101277.88;5032978;28;45522;-71
2022/06/06 04:44:22;;;;;;;;;2.33;1.67;;;;;18.55;56.40;101288.84;5034634;28;45320;-72
2022/06/06 04:46:53;;;;;;;;;2.00;2.00;;;;;18.59;56.24;101281.25;5031003;28;45451;-70
2022/06/06 04:49:20;;;;;;;;;2.67;2.00;;;;;18.53;55.68;101274.75;5024594;28;46176;-73
2022/06/06 04:51:47;;;;;;;;;2.00;2.00;;;;;17.67;55.67;101148.66;5015515;28;45681;-72
2022/06/06 04:54:19;;;;;;;;;4.00;4.00;;;;;18.04;56.14;101211.63;5025297;28;45529;-72
2022/06/06 04:56:46;;;;;;;;;1.33;0.67;;;;;18.55;55.34;101278.06;5025297;28;45545;-71
2022/06/06 04:59:13;;;;;;;;;2.00;2.00;;;;;18.52;55.36;101291.91;5031708;28;47643;-71
2022/06/06 05:01:39;;;;;;;;;2.00;1.00;;;;;18.42;55.59;101268.94;5022994;28;45811;-72
2022/06/06 05:04:08;;;;;;;;;2.00;2.00;;;;;18.22;55.10;101234.50;5015856;28;45278;-73
2022/06/06 05:06:55;;;;;;;;;2.33;2.00;;;;;18.25;55.62;101244.06;5025118;28;45326;-70
2022/06/06 05:09:35;;;;;;;;;2.33;1.00;;;;;18.63;55.14;101287.16;5024360;28;46580;-71
2022/06/06 05:12:31;;;;;;;;;1.33;1.33;;;;;18.65;54.95;101288.63;5031947;28;45475;-73
2022/06/06 05:15:09;;;;;;;;;2.00;0.33;;;;;18.55;54.00;101275.38;5017152;28;45448;-71
2022/06/06 05:17:49;;;;;;;;;1.00;1.00;;;;;18.67;54.85;101291.16;5016995;28;45436;-73
2022/06/06 05:20:14;;;;;;;;;0.00;0.00;;;;;18.55;54.66;101267.31;5020905;28;46200;-72
2022/06/06 05:22:58;;;;;;;;;1.00;1.00;;;;;18.73;54.19;101279.63;5036429;28;45257;-71
2022/06/06 05:25:39;;;;;;;;;0.00;0.00;;;;;18.67;54.40;101285.75;5027004;28;45537;-72
2022/06/06 05:28:21;;;;;;;;;1.00;1.00;;;;;18.36;54.14;101246.28;5034992;28;45561;-70
2022/06/06 05:31:03;;;;;;;;;2.00;1.33;;;;;18.55;54.11;101294.25;5027938;28;45871;-71
2022/06/06 05:33:41;;;;;;;;;0.67;0.67;;;;;17.96;54.40;101225.13;5034202;28;45467;-73
2022/06/06 05:36:06;;;;;;;;;1.00;1.00;;;;;18.54;54.78;101302.50;5023515;28;45419;-72
2022/06/06 05:38:48;;;;;;;;;1.00;1.00;;;;;18.58;54.62;101300.28;5040492;28;45434;-71
2022/06/06 05:41:28;;;;;;;;;0.00;0.00;;;;;17.79;54.49;101160.69;5035824;28;46222;-72
2022/06/06 05:44:20;;;;;;;;;1.00;1.00;;;;;18.63;54.51;101296.06;5034640;28;45387;-73
2022/06/06 05:47:06;;;;;;;;;1.00;1.00;;;;;18.70;54.58;101301.53;5032688;28;45499;-71
2022/06/06 05:50:12;;;;;;;;;1.33;1.33;;;;;18.83;54.31;101299.06;5034906;28;45183;-69
2022/06/06 05:52:43;;;;;;;;;2.00;2.00;;;;;19.03;53.57;101318.22;5035476;28;46899;-72
2022/06/06 05:55:25;;;;;;;;;2.67;2.00;;;;;19.08;53.39;101311.25;5038336;28;45319;-71
2022/06/06 05:58:28;;;;;;;;;2.00;2.00;;;;;19.14;53.30;101310.50;5023354;28;45374;-72
2022/06/06 06:01:17;;;;;;;;;2.00;1.00;;;;;19.63;52.75;101309.94;5018322;28;45480;-71
2022/06/06 06:04:20;;;;;;;;;0.67;0.67;;;;;20.69;50.54;101305.56;5019441;28;46190;-71
2022/06/06 06:06:48;;;;;;;;;2.33;1.00;;;;;21.66;48.21;101307.38;5019444;28;45527;-71
2022/06/06 06:09:38;;;;;;;;;1.00;1.00;;;;;22.52;46.24;101312.94;5030241;28;45329;-70
2022/06/06 06:12:08;;;;;;;;;1.00;1.00;;;;;23.41;44.71;101313.22;5022809;28;45590;-71
2022/06/06 06:14:52;;;;;;;;;1.00;1.00;;;;;24.22;42.65;101315.31;5026532;28;46391;-72
2022/06/06 06:17:22;;;;;;;;;0.25;0.25;;;;;24.71;40.73;101267.47;5018381;28;45530;-72
2022/06/06 06:20:02;;;;;;;;;0.67;0.67;;;;;25.67;39.40;101322.09;5025237;28;45453;-73
2022/06/06 06:22:35;;;;;;;;;0.00;0.00;;;;;26.30;38.42;101309.88;5039325;28;45610;-72
2022/06/06 06:25:04;;;;;;;;;2.67;1.00;;;;;26.92;37.25;101296.63;5036460;28;46883;-72
2022/06/06 06:27:33;;;;;;;;;3.00;3.00;;;;;27.64;36.06;101313.53;5019743;28;45427;-71
2022/06/06 06:29:58;;;;;;;;;0.00;0.00;;;;;28.03;35.35;101317.28;5024849;28;45361;-74
2022/06/06 06:33:08;;;;;;;;;0.00;0.00;;;;;28.46;33.61;101327.63;5020843;28;45397;-71
2022/06/06 06:35:39;;;;;;;;;1.50;1.50;;;;;28.93;33.62;101321.78;4957468;28;45332;-72
2022/06/06 06:38:48;;;;;;;;;1.75;1.00;;;;;29.49;32.09;101330.78;5014368;28;45456;-74
2022/06/06 06:41:33;;;;;;;;;2.00;1.00;;;;;29.97;32.12;101323.63;4973899;28;45556;-72
2022/06/06 06:44:12;;;;;;;;;0.67;0.67;;;;;30.43;30.77;101326.81;5031655;28;45251;-70
2022/06/06 06:46:41;;;;;;;;;0.00;0.00;;;;;30.14;29.93;101216.59;5020498;28;46807;-74
2022/06/06 06:49:36;;;;;;;;;0.00;0.00;;;;;31.07;29.62;101333.06;5031780;28;45335;-73
2022/06/06 06:52:30;;;;;;;;;1.00;1.00;;;;;31.45;29.25;101337.41;5018406;28;45281;-71
2022/06/06 06:55:33;;;;;;;;;1.00;0.75;;;;;31.85;28.73;101329.59;5024376;28;45529;-73
2022/06/06 06:58:56;;;;;;;;;2.00;1.00;;;;;32.29;27.42;101330.78;5025035;28;47981;-72
2022/06/06 07:08:32;;;;;;;;;0.00;0.00;;;;;31.86;27.28;101227.56;4976476;28;45530;-71
2022/06/06 07:10:43;;;;;;;;;0.00;0.00;;;;;33.39;25.29;101331.97;5019573;28;45347;-73
2022/06/06 07:13:30;;;;;;;;;1.00;1.00;;;;;33.54;25.38;101296.91;5023636;28;45336;-71
2022/06/06 07:16:08;;;;;;;;;0.00;0.00;;;;;33.25;25.17;101233.38;5026996;28;45448;-74
2022/06/06 07:18:38;;;;;;;;;1.00;1.00;;;;;33.66;24.76;101271.75;5018633;28;45530;-75
2022/06/06 07:21:07;;;;;;;;;0.00;0.00;;;;;34.06;24.36;101306.53;5033255;28;45969;-70
2022/06/06 07:23:38;;;;;;;;;1.67;0.67;;;;;34.30;25.00;101320.41;5026312;28;45283;-72
2022/06/06 07:26:04;;;;;;;;;0.67;0.67;;;;;34.41;23.80;101293.56;5026687;28;45283;-72
2022/06/06 07:28:30;;;;;;;;;0.00;0.00;;;;;34.88;23.72;101322.41;5025205;28;45773;-72
2022/06/06 07:31:13;;;;;;;;;0.00;0.00;;;;;35.02;22.72;101326.09;5020226;28;46073;-71
2022/06/06 07:34:09;;;;;;;;;0.00;0.00;;;;;35.18;22.67;101305.47;5036595;28;45378;-72
2022/06/06 07:36:59;;;;;;;;;0.00;0.00;;;;;35.60;22.73;101309.34;5025846;28;45416;-72
2022/06/06 07:39:37;;;;;;;;;61.50;50.75;;;;;35.79;22.61;101307.41;5035187;28;45623;-74
2022/06/06 07:42:22;;;;;;;;;0.67;0.67;;;;;34.74;22.44;101209.81;5025357;28;45560;-72
2022/06/06 07:45:13;;;;;;;;;1.00;1.00;;;;;34.18;23.75;101311.66;5017814;28;45276;-73
2022/06/06 07:48:06;;;;;;;;;0.00;0.00;;;;;33.26;24.99;101322.38;5033207;28;45527;-74
2022/06/06 07:51:03;;;;;;;;;0.00;0.00;;;;;33.18;24.06;101306.41;5026374;28;45396;-74
2022/06/06 07:53:38;;;;;;;;;0.00;0.00;;;;;33.02;24.12;101249.72;5029056;28;45583;-75
2022/06/06 07:56:19;;;;;;;;;0.00;0.00;;;;;33.38;23.46;101302.78;5036332;28;45598;-75
2022/06/06 07:58:50;;;;;;;;;0.00;0.00;;;;;33.47;23.49;101304.66;5029286;28;45474;-73
2022/06/06 08:01:43;;;;;;;;;0.00;0.00;;;;;32.55;23.38;101118.78;5025944;28;45597;-75
2022/06/06 08:04:27;;;;;;;;;0.00;0.00;;;;;34.06;23.14;101309.28;5027250;28;45652;-74
2022/06/06 08:07:00;;;;;;;;;0.00;0.00;;;;;33.55;23.57;101279.25;5029480;28;45263;-72
2022/06/06 08:10:04;;;;;;;;;0.00;0.00;;;;;33.50;23.64;101304.09;5022048;28;45545;-72
2022/06/06 08:13:09;;;;;;;;;1.00;1.00;;;;;33.36;24.08;101297.53;5027761;28;45300;-74
2022/06/06 08:15:47;;;;;;;;;1.33;1.33;;;;;33.70;23.92;101281.09;5014514;28;48584;-75
2022/06/06 08:18:37;;;;;;;;;2.00;0.33;;;;;34.31;22.93;101296.38;5025470;28;45268;-72
2022/06/06 08:21:11;;;;;;;;;0.67;0.67;;;;;34.56;23.00;101290.66;5017357;28;45475;-74
2022/06/06 08:23:39;;;;;;;;;2.00;1.00;;;;;34.70;22.32;101272.28;5036718;28;45328;-72
2022/06/06 08:26:05;;;;;;;;;0.00;0.00;;;;;34.49;22.37;101281.06;5028451;28;46253;-76
2022/06/06 08:28:31;;;;;;;;;1.00;1.00;;;;;34.39;22.15;101268.19;5052124;28;45271;-74
2022/06/06 08:30:57;;;;;;;;;3.00;1.00;;;;;34.07;22.55;101294.38;5021543;28;45268;-74
2022/06/06 08:33:23;;;;;;;;;1.00;1.00;;;;;33.62;23.40;101248.59;5033702;28;45505;-72
2022/06/06 08:36:16;;;;;;;;;0.33;0.33;;;;;33.08;23.64;101201.75;5026183;28;45439;-73
2022/06/06 08:38:51;;;;;;;;;0.67;0.67;;;;;33.28;23.52;101282.41;5017013;28;45614;-72
2022/06/06 08:41:49;;;;;;;;;2.00;1.00;;;;;32.64;24.30;101290.56;5017236;28;45329;-74
2022/06/06 08:44:20;;;;;;;;;3.00;3.00;;;;;32.21;24.80;101290.00;5017406;28;45424;-73
2022/06/06 08:47:13;;;;;;;;;1.00;0.00;;;;;31.84;24.63;101283.91;5026306;28;47229;-74
2022/06/06 08:53:05;;;;;;;;;0.00;0.00;;;;;32.48;23.83;101278.75;5038795;28;45457;-73
2022/06/06 08:56:08;;;;;;;;;0.00;0.00;;;;;32.79;23.02;101282.25;5039085;28;45261;-75
2022/06/06 08:59:07;;;;;;;;;0.00;0.00;;;;;32.81;23.16;101282.00;5020485;28;46572;-74
2022/06/06 09:02:17;;;;;;;;;0.00;0.00;;;;;32.53;23.61;101288.91;5019068;28;45493;-73
2022/06/06 09:04:45;;;;;;;;;1.00;1.00;;;;;32.59;23.86;101290.56;4980170;28;45510;-78
2022/06/06 09:07:25;;;;;;;;;0.00;0.00;;;;;32.60;23.29;101286.69;5042140;28;45354;-74
2022/06/06 09:10:32;;;;;;;;;1.00;1.00;;;;;31.74;23.61;101207.75;5027140;28;45360;-78
2022/06/06 09:13:00;;;;;;;;;0.33;0.33;;;;;32.61;23.82;101293.84;5015476;28;45580;-74
2022/06/06 09:15:35;;;;;;;;;1.00;0.67;;;;;33.12;23.21;101285.50;5038508;28;45545;-74
2022/06/06 09:18:21;;;;;;;;;1.00;1.00;;;;;33.44;22.87;101279.56;5026614;28;45586;-73
2022/06/06 09:21:05;;;;;;;;;1.00;1.00;;;;;34.01;22.27;101276.19;5020257;28;45734;-74
2022/06/06 09:24:21;;;;;;;;;1.67;0.00;;;;;34.62;20.77;101274.84;5020145;28;45243;-74
2022/06/06 09:26:53;;;;;;;;;1.33;1.33;;;;;34.76;21.29;101279.38;5035029;28;45577;-75
2022/06/06 09:29:50;;;;;;;;;2.00;0.67;;;;;34.25;21.74;101284.56;5039015;28;45519;-71
2022/06/06 09:32:48;;;;;;;;;0.00;0.00;;;;;34.33;21.89;101259.09;5028374;28;47616;-74
2022/06/06 09:35:48;;;;;;;;;0.00;0.00;;;;;35.36;19.99;101238.34;5041834;28;45589;-74
2022/06/06 09:38:53;;;;;;;;;0.00;0.00;;;;;35.67;19.19;101102.38;5041256;28;45241;-73
2022/06/06 09:41:39;;;;;;;;;1.00;1.00;;;;;36.85;18.60;101271.63;5033198;28;45674;-76
2022/06/06 09:44:23;;;;;;;;;0.00;0.00;;;;;36.20;18.87;101268.88;5020460;28;46605;-74
2022/06/06 09:47:08;;;;;;;;;1.00;1.00;;;;;35.34;19.69;101264.63;5037917;28;45288;-76
2022/06/06 09:49:55;;;;;;;;;1.00;0.33;;;;;34.65;21.25;101277.06;5031896;28;45557;-75
2022/06/06 09:52:57;;;;;;;;;2.00;2.00;;;;;34.57;20.54;101267.44;5038362;28;45261;-75
2022/06/06 10:01:29;;;;;;;;;0.00;0.00;;;;;34.37;21.29;101276.75;5021156;28;45455;-74
2022/06/06 10:04:13;;;;;;;;;1.00;1.00;;;;;33.89;21.20;101267.47;5038063;28;45291;-77
2022/06/06 10:07:15;;;;;;;;;0.33;0.00;;;;;33.37;21.33;101263.34;5037903;28;46234;-72
2022/06/06 10:10:08;;;;;;;;;0.00;0.00;;;;;32.08;21.94;101175.84;5019277;28;45309;-73
2022/06/06 10:12:48;;;;;;;;;0.67;0.67;;;;;31.83;22.78;101239.09;5019503;28;45277;-76
2022/06/06 10:15:38;;;;;;;;;1.00;1.00;;;;;31.38;23.79;101267.28;5033519;28;45584;-74
2022/06/06 10:18:32;;;;;;;;;2.33;0.00;;;;;30.92;23.73;101275.31;5026586;28;45618;-75
2022/06/06 10:21:22;;;;;;;;;2.67;2.67;;;;;30.52;24.53;101271.19;5037493;28;45556;-72
2022/06/06 10:24:12;;;;;;;;;0.33;0.33;;;;;30.12;24.91;101273.63;5021775;28;45479;-74
2022/06/06 10:26:54;;;;;;;;;2.00;1.00;;;;;29.71;25.06;101278.69;5028404;28;45404;-75
2022/06/06 10:30:16;;;;;;;;;2.00;0.00;;;;;29.33;25.96;101280.44;5018795;28;45478;-72
2022/06/06 10:32:50;;;;;;;;;0.00;0.00;;;;;29.01;26.10;101296.72;4971503;28;45388;-73
2022/06/06 10:35:31;;;;;;;;;0.00;0.00;;;;;28.68;26.86;101286.66;4965961;28;45301;-74
2022/06/06 10:38:09;;;;;;;;;0.00;0.00;;;;;28.38;27.45;101265.09;5000731;28;45591;-74
2022/06/06 10:40:50;;;;;;;;;11.00;11.00;;;;;28.20;27.54;101257.13;5033792;28;45280;-72
2022/06/06 10:43:42;;;;;;;;;2.00;2.00;;;;;28.14;27.84;101283.56;5025922;28;45316;-73
2022/06/06 10:46:21;;;;;;;;;1.00;1.00;;;;;28.01;27.56;101286.59;5022148;28;45481;-75
2022/06/06 10:48:59;;;;;;;;;0.00;0.00;;;;;27.68;27.92;101281.91;5030322;28;45454;-73
2022/06/06 10:52:22;;;;;;;;;1.00;0.00;;;;;27.40;28.56;101290.88;5053063;28;46830;-74
2022/06/06 10:55:01;;;;;;;;;0.33;0.33;;;;;27.21;28.07;101276.56;4976309;28;45489;-74
2022/06/06 10:57:59;;;;;;;;;1.00;0.00;;;;;27.20;29.47;101279.53;4963646;28;45593;-77
2022/06/06 11:00:33;;;;;;;;;1.00;1.00;;;;;27.14;29.27;101280.50;4961149;28;45265;-74
2022/06/06 11:03:36;;;;;;;;;0.00;0.00;;;;;27.03;29.22;101267.69;5027113;28;45587;-76
2022/06/06 11:06:25;;;;;;;;;1.33;1.33;;;;;26.93;28.48;101269.13;5019265;28;45314;-73
2022/06/06 11:09:09;;;;;;;;;1.00;1.00;;;;;26.91;29.36;101263.06;5027733;28;45348;-74
2022/06/06 11:11:49;;;;;;;;;0.00;0.00;;;;;26.91;29.01;101257.63;5033606;28;45534;-76
2022/06/06 11:14:34;;;;;;;;;1.00;1.00;;;;;26.79;30.02;101264.97;5030145;28;46695;-72
2022/06/06 11:17:24;;;;;;;;;4.33;3.67;;;;;26.74;29.22;101259.41;5028470;28;45710;-74
2022/06/06 11:20:11;;;;;;;;;0.00;0.00;;;;;25.87;28.99;101116.69;5025465;28;45388;-74
2022/06/06 11:22:36;;;;;;;;;0.00;0.00;;;;;26.23;29.57;101197.38;5019096;28;45451;-72
2022/06/06 11:25:11;;;;;;;;;0.00;0.00;;;;;26.68;29.92;101257.63;5034784;28;47809;-72
2022/06/06 11:27:55;;;;;;;;;0.00;0.00;;;;;26.66;29.62;101262.50;5027357;28;45495;-74
2022/06/06 11:30:27;;;;;;;;;0.00;0.00;;;;;26.48;29.42;101249.00;5027213;28;45512;-75
2022/06/06 11:33:32;;;;;;;;;0.00;0.00;;;;;26.48;28.86;101262.63;5037045;28;45337;-74
2022/06/06 11:36:09;;;;;;;;;1.00;1.00;;;;;26.35;28.92;101261.78;5030006;28;45493;-74
2022/06/06 11:38:58;;;;;;;;;0.00;0.00;;;;;26.02;29.54;101213.22;5030034;28;45555;-74
2022/06/06 11:42:00;;;;;;;;;0.00;0.00;;;;;25.43;27.91;101129.75;5038545;28;45363;-71
2022/06/06 11:44:50;;;;;;;;;0.00;0.00;;;;;26.01;28.08;101252.44;5030800;28;45425;-74
2022/06/06 11:47:15;;;;;;;;;0.00;0.00;;;;;26.05;28.49;101255.56;5033307;28;48794;-74
2022/06/06 11:50:16;;;;;;;;;0.00;0.00;;;;;25.80;28.92;101189.50;5033493;28;46013;-72
2022/06/06 11:53:11;;;;;;;;;0.00;0.00;;;;;26.26;28.03;101257.72;5007409;28;45361;-73
2022/06/06 11:56:18;;;;;;;;;0.00;0.00;;;;;26.13;27.87;101251.66;5018723;28;45341;-72
2022/06/06 11:59:05;;;;;;;;;0.00;0.00;;;;;25.66;28.91;101202.47;4995667;28;46068;-74
2022/06/06 12:01:49;;;;;;;;;0.00;0.00;;;;;25.66;29.00;101180.69;5037126;28;45325;-73
2022/06/06 12:04:52;;;;;;;;;1.00;1.00;;;;;26.22;29.19;101256.50;5028503;28;45288;-73
2022/06/06 12:07:33;;;;;;;;;1.00;1.00;;;;;26.22;29.29;101252.94;5017074;28;45551;-72
2022/06/06 12:10:23;;;;;;;;;0.67;0.67;;;;;26.03;29.50;101219.53;5025564;28;46534;-73
2022/06/06 12:13:04;;;;;;;;;0.33;0.33;;;;;26.30;29.44;101245.28;5028448;28;45498;-74
2022/06/06 12:16:01;;;;;;;;;2.00;2.00;;;;;26.28;29.95;101252.03;5026156;28;45504;-73
2022/06/06 12:19:00;;;;;;;;;0.67;0.67;;;;;26.25;29.89;101245.16;5017812;28;45462;-72
2022/06/06 12:21:35;;;;;;;;;1.00;1.00;;;;;26.20;29.85;101238.72;5026979;28;47275;-76
2022/06/06 12:24:10;;;;;;;;;2.00;2.00;;;;;26.20;30.09;101247.72;5033181;28;45426;-73
2022/06/06 12:26:57;;;;;;;;;0.67;0.67;;;;;26.17;30.17;101247.38;5021469;28;45249;-73
2022/06/06 12:30:02;;;;;;;;;2.00;1.00;;;;;26.10;30.04;101239.31;5027395;28;45433;-75
2022/06/06 12:32:50;;;;;;;;;1.00;1.00;;;;;25.47;29.83;101134.47;5026779;28;45353;-76
2022/06/06 12:35:36;;;;;;;;;0.00;0.00;;;;;25.33;29.84;101105.78;5035812;28;45659;-73
2022/06/06 12:38:52;;;;;;;;;7.33;7.33;;;;;26.13;30.35;101229.84;5000310;28;45462;-74
2022/06/06 12:41:50;;;;;;;;;1.00;1.00;;;;;26.17;30.36;101228.31;5001751;28;45689;-72
2022/06/06 12:44:34;;;;;;;;;0.00;0.00;;;;;25.87;30.15;101176.63;5019962;28;46155;-73
2022/06/06 12:47:31;;;;;;;;;3.00;1.00;;;;;26.14;30.51;101226.06;5030914;28;45264;-75
2022/06/06 12:50:25;;;;;;;;;0.00;0.00;;;;;26.14;30.62;101215.16;5030452;28;45325;-73